Terminal Aerodrome Forecast
Issued by NWS

Home | Current Version | Previous Version | Text Only | Print | Product List | Glossary On
Versions: 1 2 3 4 5 6 7 8 9 10 11 12 13 14 15 16 17 18 19 20
000
FTUS43 KICT 150531
TAFCNU
TAF
KCNU 150531Z 1506/1606 19006KT P6SM BKN080
     FM150800 29008KT P6SM -RASN SCT020 OVC040
     FM150900 31008KT 3SM -SN BR OVC015
      TEMPO 1509/1511 1SM -SN BR BKN012
     FM151100 34009KT 3SM -SN OVC025
     FM151200 36010KT P6SM VCSH OVC060
     FM151500 35015G24KT P6SM OVC080
     FM151800 34015G24KT P6SM BKN100=

USA.gov is the U.S. government's official web portal to all federal, state and local government web resources and services.